sensor_id;sensor_type;location;lat;lon;timestamp;P1;durP1;ratioP1;P2;durP2;ratioP2
4452;SDS011;2239;48.152;11.584;2023-04-06T00:00:36;5.83;;;1.47;;
4452;SDS011;2239;48.152;11.584;2023-04-06T00:03:02;2.40;;;1.50;;
4452;SDS011;2239;48.152;11.584;2023-04-06T00:05:28;3.33;;;1.90;;
4452;SDS011;2239;48.152;11.584;2023-04-06T00:07:55;1.27;;;1.05;;
4452;SDS011;2239;48.152;11.584;2023-04-06T00:10:24;1.70;;;1.02;;
4452;SDS011;2239;48.152;11.584;2023-04-06T00:12:54;3.25;;;1.45;;
4452;SDS011;2239;48.152;11.584;2023-04-06T00:15:21;1.10;;;0.77;;
4452;SDS011;2239;48.152;11.584;2023-04-06T00:17:47;1.10;;;0.90;;
4452;SDS011;2239;48.152;11.584;2023-04-06T00:20:12;1.80;;;1.10;;
4452;SDS011;2239;48.152;11.584;2023-04-06T00:22:38;1.13;;;1.00;;
4452;SDS011;2239;48.152;11.584;2023-04-06T00:25:03;2.10;;;1.00;;
4452;SDS011;2239;48.152;11.584;2023-04-06T00:27:29;2.17;;;1.50;;
4452;SDS011;2239;48.152;11.584;2023-04-06T00:29:55;14.37;;;1.37;;
4452;SDS011;2239;48.152;11.584;2023-04-06T00:32:21;5.23;;;1.60;;
4452;SDS011;2239;48.152;11.584;2023-04-06T00:34:46;1.17;;;1.07;;
4452;SDS011;2239;48.152;11.584;2023-04-06T00:37:12;4.87;;;1.30;;
4452;SDS011;2239;48.152;11.584;2023-04-06T00:39:38;1.43;;;1.27;;
4452;SDS011;2239;48.152;11.584;2023-04-06T00:42:07;1.43;;;1.33;;
4452;SDS011;2239;48.152;11.584;2023-04-06T00:44:38;1.45;;;0.80;;
4452;SDS011;2239;48.152;11.584;2023-04-06T00:47:05;1.00;;;1.00;;
4452;SDS011;2239;48.152;11.584;2023-04-06T00:49:31;2.40;;;1.63;;
4452;SDS011;2239;48.152;11.584;2023-04-06T00:51:57;1.92;;;1.10;;
4452;SDS011;2239;48.152;11.584;2023-04-06T00:54:23;3.03;;;1.07;;
4452;SDS011;2239;48.152;11.584;2023-04-06T00:56:48;1.37;;;0.90;;
4452;SDS011;2239;48.152;11.584;2023-04-06T00:59:14;1.77;;;1.03;;
4452;SDS011;2239;48.152;11.584;2023-04-06T01:01:40;1.07;;;0.93;;
4452;SDS011;2239;48.152;11.584;2023-04-06T01:04:06;2.23;;;1.30;;
4452;SDS011;2239;48.152;11.584;2023-04-06T01:06:31;1.67;;;0.97;;
4452;SDS011;2239;48.152;11.584;2023-04-06T01:08:57;2.30;;;1.20;;
4452;SDS011;2239;48.152;11.584;2023-04-06T01:11:22;1.23;;;1.10;;
4452;SDS011;2239;48.152;11.584;2023-04-06T01:13:48;1.30;;;0.93;;
4452;SDS011;2239;48.152;11.584;2023-04-06T01:16:13;2.43;;;1.07;;
4452;SDS011;2239;48.152;11.584;2023-04-06T01:18:40;2.42;;;1.27;;
4452;SDS011;2239;48.152;11.584;2023-04-06T01:21:07;2.17;;;0.85;;
4452;SDS011;2239;48.152;11.584;2023-04-06T01:23:33;3.53;;;1.10;;
4452;SDS011;2239;48.152;11.584;2023-04-06T01:25:59;0.60;;;0.60;;
4452;SDS011;2239;48.152;11.584;2023-04-06T01:28:25;1.53;;;1.00;;
4452;SDS011;2239;48.152;11.584;2023-04-06T01:30:51;1.83;;;1.37;;
4452;SDS011;2239;48.152;11.584;2023-04-06T01:33:16;1.67;;;0.90;;
4452;SDS011;2239;48.152;11.584;2023-04-06T01:35:42;4.70;;;1.70;;
4452;SDS011;2239;48.152;11.584;2023-04-06T01:38:07;4.87;;;1.20;;
4452;SDS011;2239;48.152;11.584;2023-04-06T01:40:33;3.10;;;1.40;;
4452;SDS011;2239;48.152;11.584;2023-04-06T01:42:58;0.93;;;0.93;;
4452;SDS011;2239;48.152;11.584;2023-04-06T01:45:24;3.10;;;1.73;;
4452;SDS011;2239;48.152;11.584;2023-04-06T01:47:50;1.07;;;1.03;;
4452;SDS011;2239;48.152;11.584;2023-04-06T01:50:15;3.70;;;1.47;;
4452;SDS011;2239;48.152;11.584;2023-04-06T01:52:41;1.27;;;0.87;;
4452;SDS011;2239;48.152;11.584;2023-04-06T01:55:06;2.20;;;0.90;;
4452;SDS011;2239;48.152;11.584;2023-04-06T01:57:32;2.00;;;1.63;;
4452;SDS011;2239;48.152;11.584;2023-04-06T01:59:58;2.85;;;0.80;;
4452;SDS011;2239;48.152;11.584;2023-04-06T02:02:24;1.33;;;1.03;;
4452;SDS011;2239;48.152;11.584;2023-04-06T02:04:49;2.73;;;1.57;;
4452;SDS011;2239;48.152;11.584;2023-04-06T02:07:15;2.00;;;0.90;;
4452;SDS011;2239;48.152;11.584;2023-04-06T02:09:41;0.90;;;0.57;;
4452;SDS011;2239;48.152;11.584;2023-04-06T02:12:06;6.77;;;1.40;;
4452;SDS011;2239;48.152;11.584;2023-04-06T02:14:32;2.40;;;1.30;;
4452;SDS011;2239;48.152;11.584;2023-04-06T02:16:57;1.03;;;1.03;;
4452;SDS011;2239;48.152;11.584;2023-04-06T02:19:23;1.10;;;1.07;;
4452;SDS011;2239;48.152;11.584;2023-04-06T02:21:49;2.03;;;0.60;;
4452;SDS011;2239;48.152;11.584;2023-04-06T02:24:14;0.50;;;0.50;;
4452;SDS011;2239;48.152;11.584;2023-04-06T02:26:40;1.67;;;1.00;;
4452;SDS011;2239;48.152;11.584;2023-04-06T02:29:05;1.00;;;0.80;;
4452;SDS011;2239;48.152;11.584;2023-04-06T02:31:32;0.70;;;0.68;;
4452;SDS011;2239;48.152;11.584;2023-04-06T02:33:57;2.33;;;1.03;;
4452;SDS011;2239;48.152;11.584;2023-04-06T02:36:23;3.03;;;0.80;;
4452;SDS011;2239;48.152;11.584;2023-04-06T02:38:48;0.70;;;0.60;;
4452;SDS011;2239;48.152;11.584;2023-04-06T02:41:14;0.50;;;0.50;;
4452;SDS011;2239;48.152;11.584;2023-04-06T02:43:39;1.17;;;1.17;;
4452;SDS011;2239;48.152;11.584;2023-04-06T02:46:05;0.70;;;0.70;;
4452;SDS011;2239;48.152;11.584;2023-04-06T02:48:30;2.80;;;1.50;;
4452;SDS011;2239;48.152;11.584;2023-04-06T02:50:56;1.37;;;0.90;;
4452;SDS011;2239;48.152;11.584;2023-04-06T02:53:21;1.73;;;0.80;;
4452;SDS011;2239;48.152;11.584;2023-04-06T02:55:47;1.40;;;1.00;;
4452;SDS011;2239;48.152;11.584;2023-04-06T02:58:12;0.60;;;0.60;;
4452;SDS011;2239;48.152;11.584;2023-04-06T03:00:38;0.70;;;0.70;;
4452;SDS011;2239;48.152;11.584;2023-04-06T03:03:03;1.10;;;1.00;;
4452;SDS011;2239;48.152;11.584;2023-04-06T03:05:29;0.50;;;0.40;;
4452;SDS011;2239;48.152;11.584;2023-04-06T03:07:55;0.60;;;0.60;;
4452;SDS011;2239;48.152;11.584;2023-04-06T03:10:21;0.53;;;0.50;;
4452;SDS011;2239;48.152;11.584;2023-04-06T03:12:49;1.95;;;1.50;;
4452;SDS011;2239;48.152;11.584;2023-04-06T03:15:15;0.67;;;0.67;;
4452;SDS011;2239;48.152;11.584;2023-04-06T03:17:40;2.00;;;0.90;;
4452;SDS011;2239;48.152;11.584;2023-04-06T03:20:06;0.80;;;0.80;;
4452;SDS011;2239;48.152;11.584;2023-04-06T03:22:32;0.73;;;0.73;;
4452;SDS011;2239;48.152;11.584;2023-04-06T03:24:57;1.03;;;0.73;;
4452;SDS011;2239;48.152;11.584;2023-04-06T03:27:23;3.63;;;1.00;;
4452;SDS011;2239;48.152;11.584;2023-04-06T03:29:48;2.50;;;1.33;;
4452;SDS011;2239;48.152;11.584;2023-04-06T03:32:14;12.73;;;1.13;;
4452;SDS011;2239;48.152;11.584;2023-04-06T03:34:39;13.40;;;1.93;;
4452;SDS011;2239;48.152;11.584;2023-04-06T03:37:05;1.97;;;0.80;;
4452;SDS011;2239;48.152;11.584;2023-04-06T03:39:30;2.17;;;0.83;;
4452;SDS011;2239;48.152;11.584;2023-04-06T03:41:56;1.38;;;0.80;;
4452;SDS011;2239;48.152;11.584;2023-04-06T03:44:22;1.33;;;1.00;;
4452;SDS011;2239;48.152;11.584;2023-04-06T03:46:47;3.70;;;1.53;;
4452;SDS011;2239;48.152;11.584;2023-04-06T03:49:13;1.67;;;1.40;;
4452;SDS011;2239;48.152;11.584;2023-04-06T03:51:38;2.10;;;0.70;;
4452;SDS011;2239;48.152;11.584;2023-04-06T03:54:04;0.97;;;0.73;;
4452;SDS011;2239;48.152;11.584;2023-04-06T03:56:30;0.90;;;0.70;;
4452;SDS011;2239;48.152;11.584;2023-04-06T03:58:55;0.90;;;0.90;;
4452;SDS011;2239;48.152;11.584;2023-04-06T04:01:21;1.23;;;0.70;;
4452;SDS011;2239;48.152;11.584;2023-04-06T04:03:46;0.70;;;0.70;;
4452;SDS011;2239;48.152;11.584;2023-04-06T04:06:12;2.00;;;1.17;;
4452;SDS011;2239;48.152;11.584;2023-04-06T04:08:37;3.47;;;2.10;;
4452;SDS011;2239;48.152;11.584;2023-04-06T04:11:03;1.13;;;0.87;;
4452;SDS011;2239;48.152;11.584;2023-04-06T04:13:28;3.13;;;1.13;;
4452;SDS011;2239;48.152;11.584;2023-04-06T04:15:54;5.77;;;1.20;;
4452;SDS011;2239;48.152;11.584;2023-04-06T04:18:19;1.33;;;0.60;;
4452;SDS011;2239;48.152;11.584;2023-04-06T04:20:45;2.30;;;0.70;;
4452;SDS011;2239;48.152;11.584;2023-04-06T04:23:11;1.33;;;1.00;;
4452;SDS011;2239;48.152;11.584;2023-04-06T04:25:36;1.80;;;0.77;;
4452;SDS011;2239;48.152;11.584;2023-04-06T04:28:02;4.70;;;1.87;;
4452;SDS011;2239;48.152;11.584;2023-04-06T04:30:27;3.03;;;2.07;;
4452;SDS011;2239;48.152;11.584;2023-04-06T04:32:53;0.87;;;0.87;;
4452;SDS011;2239;48.152;11.584;2023-04-06T04:35:19;1.23;;;1.13;;
4452;SDS011;2239;48.152;11.584;2023-04-06T04:37:45;2.70;;;1.70;;
4452;SDS011;2239;48.152;11.584;2023-04-06T04:40:11;1.30;;;1.20;;
4452;SDS011;2239;48.152;11.584;2023-04-06T04:42:37;1.02;;;0.88;;
4452;SDS011;2239;48.152;11.584;2023-04-06T04:45:02;3.80;;;1.17;;
4452;SDS011;2239;48.152;11.584;2023-04-06T04:47:28;1.93;;;1.73;;
4452;SDS011;2239;48.152;11.584;2023-04-06T04:49:53;1.90;;;1.10;;
4452;SDS011;2239;48.152;11.584;2023-04-06T04:52:19;2.50;;;1.63;;
4452;SDS011;2239;48.152;11.584;2023-04-06T04:54:45;1.87;;;1.23;;
4452;SDS011;2239;48.152;11.584;2023-04-06T04:57:11;0.77;;;0.70;;
4452;SDS011;2239;48.152;11.584;2023-04-06T04:59:38;1.05;;;0.80;;
4452;SDS011;2239;48.152;11.584;2023-04-06T05:02:04;0.93;;;0.90;;
4452;SDS011;2239;48.152;11.584;2023-04-06T05:04:29;1.13;;;1.00;;
4452;SDS011;2239;48.152;11.584;2023-04-06T05:07:08;1.70;;;1.60;;
4452;SDS011;2239;48.152;11.584;2023-04-06T05:09:34;4.70;;;1.60;;
4452;SDS011;2239;48.152;11.584;2023-04-06T05:12:00;1.73;;;1.50;;
4452;SDS011;2239;48.152;11.584;2023-04-06T05:14:26;3.03;;;1.37;;
4452;SDS011;2239;48.152;11.584;2023-04-06T05:16:52;1.42;;;0.98;;
4452;SDS011;2239;48.152;11.584;2023-04-06T05:19:18;1.52;;;0.82;;
4452;SDS011;2239;48.152;11.584;2023-04-06T05:21:44;2.10;;;0.63;;
4452;SDS011;2239;48.152;11.584;2023-04-06T05:24:10;1.30;;;0.83;;
4452;SDS011;2239;48.152;11.584;2023-04-06T05:26:35;0.60;;;0.60;;
4452;SDS011;2239;48.152;11.584;2023-04-06T05:29:01;0.90;;;0.80;;
4452;SDS011;2239;48.152;11.584;2023-04-06T05:31:27;0.70;;;0.57;;
4452;SDS011;2239;48.152;11.584;2023-04-06T05:33:53;1.48;;;1.38;;
4452;SDS011;2239;48.152;11.584;2023-04-06T05:36:19;1.80;;;1.50;;
4452;SDS011;2239;48.152;11.584;2023-04-06T05:38:45;1.40;;;1.00;;
4452;SDS011;2239;48.152;11.584;2023-04-06T05:41:10;1.10;;;1.00;;
4452;SDS011;2239;48.152;11.584;2023-04-06T05:43:36;1.57;;;0.80;;
4452;SDS011;2239;48.152;11.584;2023-04-06T05:46:02;2.60;;;1.00;;
4452;SDS011;2239;48.152;11.584;2023-04-06T05:48:27;0.67;;;0.67;;
4452;SDS011;2239;48.152;11.584;2023-04-06T05:50:53;1.10;;;0.70;;
4452;SDS011;2239;48.152;11.584;2023-04-06T05:53:19;0.60;;;0.60;;
4452;SDS011;2239;48.152;11.584;2023-04-06T05:55:46;3.65;;;1.63;;
4452;SDS011;2239;48.152;11.584;2023-04-06T05:58:11;0.60;;;0.60;;
4452;SDS011;2239;48.152;11.584;2023-04-06T06:00:37;2.30;;;0.83;;
4452;SDS011;2239;48.152;11.584;2023-04-06T06:03:03;0.83;;;0.83;;
4452;SDS011;2239;48.152;11.584;2023-04-06T06:05:29;1.27;;;1.17;;
4452;SDS011;2239;48.152;11.584;2023-04-06T06:07:55;0.80;;;0.70;;
4452;SDS011;2239;48.152;11.584;2023-04-06T06:10:23;1.27;;;1.10;;
4452;SDS011;2239;48.152;11.584;2023-04-06T06:12:49;1.27;;;1.17;;
4452;SDS011;2239;48.152;11.584;2023-04-06T06:15:15;2.78;;;1.00;;
4452;SDS011;2239;48.152;11.584;2023-04-06T06:17:41;3.13;;;1.00;;
4452;SDS011;2239;48.152;11.584;2023-04-06T06:20:07;1.33;;;1.20;;
4452;SDS011;2239;48.152;11.584;2023-04-06T06:22:33;1.53;;;1.43;;
4452;SDS011;2239;48.152;11.584;2023-04-06T06:24:58;4.20;;;2.10;;
4452;SDS011;2239;48.152;11.584;2023-04-06T06:27:24;1.73;;;1.53;;
4452;SDS011;2239;48.152;11.584;2023-04-06T06:29:49;3.27;;;1.57;;
4452;SDS011;2239;48.152;11.584;2023-04-06T06:32:15;1.57;;;1.47;;
4452;SDS011;2239;48.152;11.584;2023-04-06T06:34:40;2.00;;;1.50;;
4452;SDS011;2239;48.152;11.584;2023-04-06T06:37:06;1.30;;;0.83;;
4452;SDS011;2239;48.152;11.584;2023-04-06T06:39:32;0.90;;;0.77;;
4452;SDS011;2239;48.152;11.584;2023-04-06T06:41:57;1.43;;;1.00;;
4452;SDS011;2239;48.152;11.584;2023-04-06T06:44:26;3.33;;;1.35;;
4452;SDS011;2239;48.152;11.584;2023-04-06T06:46:52;1.73;;;1.08;;
4452;SDS011;2239;48.152;11.584;2023-04-06T06:49:18;2.77;;;1.20;;
4452;SDS011;2239;48.152;11.584;2023-04-06T06:51:44;5.28;;;1.55;;
4452;SDS011;2239;48.152;11.584;2023-04-06T06:54:11;2.55;;;1.67;;
4452;SDS011;2239;48.152;11.584;2023-04-06T06:56:37;4.57;;;1.70;;
4452;SDS011;2239;48.152;11.584;2023-04-06T06:59:04;1.30;;;1.02;;
4452;SDS011;2239;48.152;11.584;2023-04-06T07:01:31;2.67;;;1.23;;
4452;SDS011;2239;48.152;11.584;2023-04-06T07:03:58;2.20;;;0.90;;
4452;SDS011;2239;48.152;11.584;2023-04-06T07:06:23;2.27;;;1.20;;
4452;SDS011;2239;48.152;11.584;2023-04-06T07:08:49;3.73;;;1.30;;
4452;SDS011;2239;48.152;11.584;2023-04-06T07:11:15;2.72;;;1.30;;
4452;SDS011;2239;48.152;11.584;2023-04-06T07:13:41;1.03;;;0.70;;
4452;SDS011;2239;48.152;11.584;2023-04-06T07:16:08;3.17;;;1.50;;
4452;SDS011;2239;48.152;11.584;2023-04-06T07:18:33;1.47;;;1.20;;
4452;SDS011;2239;48.152;11.584;2023-04-06T07:20:59;2.03;;;1.13;;
4452;SDS011;2239;48.152;11.584;2023-04-06T07:23:24;2.30;;;1.43;;
4452;SDS011;2239;48.152;11.584;2023-04-06T07:25:50;2.23;;;1.50;;
4452;SDS011;2239;48.152;11.584;2023-04-06T07:28:17;1.70;;;1.20;;
4452;SDS011;2239;48.152;11.584;2023-04-06T07:30:43;2.37;;;1.47;;
4452;SDS011;2239;48.152;11.584;2023-04-06T07:33:08;1.90;;;0.90;;
4452;SDS011;2239;48.152;11.584;2023-04-06T07:35:34;4.70;;;1.87;;
4452;SDS011;2239;48.152;11.584;2023-04-06T07:38:01;2.60;;;1.08;;
4452;SDS011;2239;48.152;11.584;2023-04-06T07:40:27;5.13;;;2.00;;
4452;SDS011;2239;48.152;11.584;2023-04-06T07:42:53;1.70;;;1.17;;
4452;SDS011;2239;48.152;11.584;2023-04-06T07:45:18;2.60;;;1.90;;
4452;SDS011;2239;48.152;11.584;2023-04-06T07:47:44;4.10;;;1.90;;
4452;SDS011;2239;48.152;11.584;2023-04-06T07:50:10;7.37;;;1.97;;
4452;SDS011;2239;48.152;11.584;2023-04-06T07:52:36;2.93;;;2.27;;
4452;SDS011;2239;48.152;11.584;2023-04-06T07:55:01;5.77;;;1.73;;
4452;SDS011;2239;48.152;11.584;2023-04-06T07:57:27;2.37;;;1.80;;
4452;SDS011;2239;48.152;11.584;2023-04-06T07:59:53;2.10;;;1.47;;
4452;SDS011;2239;48.152;11.584;2023-04-06T08:02:18;4.20;;;2.30;;
4452;SDS011;2239;48.152;11.584;2023-04-06T08:04:44;3.80;;;1.47;;
4452;SDS011;2239;48.152;11.584;2023-04-06T08:07:10;2.20;;;1.70;;
4452;SDS011;2239;48.152;11.584;2023-04-06T08:09:36;4.63;;;1.77;;
4452;SDS011;2239;48.152;11.584;2023-04-06T08:12:01;4.30;;;1.80;;
4452;SDS011;2239;48.152;11.584;2023-04-06T08:14:27;3.37;;;2.00;;
4452;SDS011;2239;48.152;11.584;2023-04-06T08:16:52;4.70;;;2.10;;
4452;SDS011;2239;48.152;11.584;2023-04-06T08:19:18;6.63;;;2.67;;
4452;SDS011;2239;48.152;11.584;2023-04-06T08:21:44;3.03;;;2.13;;
4452;SDS011;2239;48.152;11.584;2023-04-06T08:24:11;2.30;;;1.73;;
4452;SDS011;2239;48.152;11.584;2023-04-06T08:26:36;6.00;;;1.90;;
4452;SDS011;2239;48.152;11.584;2023-04-06T08:29:02;5.50;;;2.07;;
4452;SDS011;2239;48.152;11.584;2023-04-06T08:31:29;4.00;;;1.83;;
4452;SDS011;2239;48.152;11.584;2023-04-06T08:33:55;6.30;;;1.80;;
4452;SDS011;2239;48.152;11.584;2023-04-06T08:36:21;4.00;;;1.90;;
4452;SDS011;2239;48.152;11.584;2023-04-06T08:38:48;2.10;;;1.33;;
4452;SDS011;2239;48.152;11.584;2023-04-06T08:41:14;8.70;;;2.83;;
4452;SDS011;2239;48.152;11.584;2023-04-06T08:46:08;2.50;;;1.67;;
4452;SDS011;2239;48.152;11.584;2023-04-06T08:48:35;5.67;;;2.30;;
4452;SDS011;2239;48.152;11.584;2023-04-06T08:51:01;3.30;;;1.93;;
4452;SDS011;2239;48.152;11.584;2023-04-06T08:53:27;7.67;;;2.60;;
4452;SDS011;2239;48.152;11.584;2023-04-06T08:55:53;7.73;;;2.50;;
4452;SDS011;2239;48.152;11.584;2023-04-06T08:58:21;2.47;;;1.67;;
4452;SDS011;2239;48.152;11.584;2023-04-06T09:00:48;2.90;;;1.90;;
4452;SDS011;2239;48.152;11.584;2023-04-06T09:03:14;5.17;;;1.70;;
4452;SDS011;2239;48.152;11.584;2023-04-06T09:05:40;2.67;;;2.00;;
4452;SDS011;2239;48.152;11.584;2023-04-06T09:08:06;3.80;;;1.90;;
4452;SDS011;2239;48.152;11.584;2023-04-06T09:10:32;5.87;;;2.53;;
4452;SDS011;2239;48.152;11.584;2023-04-06T09:13:07;4.03;;;2.10;;
4452;SDS011;2239;48.152;11.584;2023-04-06T09:15:33;4.27;;;2.33;;
4452;SDS011;2239;48.152;11.584;2023-04-06T09:17:59;3.80;;;2.53;;
4452;SDS011;2239;48.152;11.584;2023-04-06T09:20:25;5.47;;;2.63;;
4452;SDS011;2239;48.152;11.584;2023-04-06T09:22:53;3.13;;;2.07;;
4452;SDS011;2239;48.152;11.584;2023-04-06T09:25:19;5.60;;;2.43;;
4452;SDS011;2239;48.152;11.584;2023-04-06T09:27:47;10.43;;;4.27;;
4452;SDS011;2239;48.152;11.584;2023-04-06T09:30:22;7.93;;;3.10;;
4452;SDS011;2239;48.152;11.584;2023-04-06T09:32:50;6.70;;;3.37;;
4452;SDS011;2239;48.152;11.584;2023-04-06T09:35:17;6.20;;;3.17;;
4452;SDS011;2239;48.152;11.584;2023-04-06T09:37:47;3.40;;;2.10;;
4452;SDS011;2239;48.152;11.584;2023-04-06T09:40:14;6.63;;;3.03;;
4452;SDS011;2239;48.152;11.584;2023-04-06T09:42:42;5.30;;;2.83;;
4452;SDS011;2239;48.152;11.584;2023-04-06T09:45:11;7.30;;;2.67;;
4452;SDS011;2239;48.152;11.584;2023-04-06T09:47:36;6.30;;;2.70;;
4452;SDS011;2239;48.152;11.584;2023-04-06T09:50:05;7.17;;;3.47;;
4452;SDS011;2239;48.152;11.584;2023-04-06T09:52:33;16.53;;;3.27;;
4452;SDS011;2239;48.152;11.584;2023-04-06T09:55:03;4.33;;;2.50;;
4452;SDS011;2239;48.152;11.584;2023-04-06T09:57:35;4.60;;;2.43;;
4452;SDS011;2239;48.152;11.584;2023-04-06T10:00:07;4.60;;;3.23;;
4452;SDS011;2239;48.152;11.584;2023-04-06T10:05:22;5.83;;;2.93;;
4452;SDS011;2239;48.152;11.584;2023-04-06T10:08:09;6.80;;;3.23;;
4452;SDS011;2239;48.152;11.584;2023-04-06T10:10:35;6.00;;;3.00;;
4452;SDS011;2239;48.152;11.584;2023-04-06T10:13:02;5.77;;;2.90;;
4452;SDS011;2239;48.152;11.584;2023-04-06T10:15:29;8.47;;;3.17;;
4452;SDS011;2239;48.152;11.584;2023-04-06T10:17:58;6.53;;;3.07;;
4452;SDS011;2239;48.152;11.584;2023-04-06T10:20:46;5.23;;;2.60;;
4452;SDS011;2239;48.152;11.584;2023-04-06T10:23:19;11.23;;;2.93;;
4452;SDS011;2239;48.152;11.584;2023-04-06T10:26:11;6.40;;;3.03;;
4452;SDS011;2239;48.152;11.584;2023-04-06T10:28:40;8.80;;;3.10;;
4452;SDS011;2239;48.152;11.584;2023-04-06T10:31:06;5.40;;;2.73;;
4452;SDS011;2239;48.152;11.584;2023-04-06T10:33:32;6.53;;;3.43;;
4452;SDS011;2239;48.152;11.584;2023-04-06T10:36:09;7.57;;;3.40;;
4452;SDS011;2239;48.152;11.584;2023-04-06T10:38:38;5.50;;;2.70;;
4452;SDS011;2239;48.152;11.584;2023-04-06T10:41:09;9.43;;;3.47;;
4452;SDS011;2239;48.152;11.584;2023-04-06T10:43:37;5.10;;;2.60;;
4452;SDS011;2239;48.152;11.584;2023-04-06T10:46:06;4.83;;;2.50;;
4452;SDS011;2239;48.152;11.584;2023-04-06T10:51:15;6.90;;;3.37;;
4452;SDS011;2239;48.152;11.584;2023-04-06T10:53:42;7.93;;;2.97;;
4452;SDS011;2239;48.152;11.584;2023-04-06T10:56:09;6.10;;;2.70;;
4452;SDS011;2239;48.152;11.584;2023-04-06T10:58:37;7.00;;;2.73;;
4452;SDS011;2239;48.152;11.584;2023-04-06T11:01:03;8.23;;;3.17;;
4452;SDS011;2239;48.152;11.584;2023-04-06T11:03:28;5.00;;;2.70;;
4452;SDS011;2239;48.152;11.584;2023-04-06T11:05:54;5.50;;;2.60;;
4452;SDS011;2239;48.152;11.584;2023-04-06T11:08:24;5.80;;;2.63;;
4452;SDS011;2239;48.152;11.584;2023-04-06T11:13:57;8.03;;;3.27;;
4452;SDS011;2239;48.152;11.584;2023-04-06T11:16:25;7.27;;;2.70;;
4452;SDS011;2239;48.152;11.584;2023-04-06T11:21:18;8.27;;;3.33;;
4452;SDS011;2239;48.152;11.584;2023-04-06T11:23:45;6.37;;;2.90;;
4452;SDS011;2239;48.152;11.584;2023-04-06T11:26:13;6.87;;;3.00;;
4452;SDS011;2239;48.152;11.584;2023-04-06T11:28:43;6.47;;;3.40;;
4452;SDS011;2239;48.152;11.584;2023-04-06T11:31:09;6.97;;;2.60;;
4452;SDS011;2239;48.152;11.584;2023-04-06T11:33:36;7.47;;;3.23;;
4452;SDS011;2239;48.152;11.584;2023-04-06T11:36:03;4.77;;;2.50;;
4452;SDS011;2239;48.152;11.584;2023-04-06T11:38:29;5.40;;;2.33;;
4452;SDS011;2239;48.152;11.584;2023-04-06T11:40:55;7.10;;;2.93;;
4452;SDS011;2239;48.152;11.584;2023-04-06T11:43:30;7.80;;;2.63;;
4452;SDS011;2239;48.152;11.584;2023-04-06T11:46:03;5.10;;;2.23;;
4452;SDS011;2239;48.152;11.584;2023-04-06T11:48:29;7.83;;;2.83;;
4452;SDS011;2239;48.152;11.584;2023-04-06T11:50:58;5.30;;;2.53;;
4452;SDS011;2239;48.152;11.584;2023-04-06T11:53:26;6.70;;;2.43;;
4452;SDS011;2239;48.152;11.584;2023-04-06T11:55:53;6.73;;;2.40;;
4452;SDS011;2239;48.152;11.584;2023-04-06T11:58:18;3.67;;;1.87;;
4452;SDS011;2239;48.152;11.584;2023-04-06T12:00:44;7.37;;;2.57;;
4452;SDS011;2239;48.152;11.584;2023-04-06T12:03:13;5.53;;;2.77;;
4452;SDS011;2239;48.152;11.584;2023-04-06T12:05:39;5.90;;;2.73;;
4452;SDS011;2239;48.152;11.584;2023-04-06T12:08:05;8.63;;;3.10;;
4452;SDS011;2239;48.152;11.584;2023-04-06T12:10:30;7.47;;;3.13;;
4452;SDS011;2239;48.152;11.584;2023-04-06T12:12:56;5.47;;;2.40;;
4452;SDS011;2239;48.152;11.584;2023-04-06T12:15:21;5.30;;;2.87;;
4452;SDS011;2239;48.152;11.584;2023-04-06T12:17:47;5.13;;;2.30;;
4452;SDS011;2239;48.152;11.584;2023-04-06T12:20:14;4.60;;;2.27;;
4452;SDS011;2239;48.152;11.584;2023-04-06T12:22:40;3.70;;;2.00;;
4452;SDS011;2239;48.152;11.584;2023-04-06T12:25:05;6.30;;;2.63;;
4452;SDS011;2239;48.152;11.584;2023-04-06T12:27:34;4.30;;;2.13;;
4452;SDS011;2239;48.152;11.584;2023-04-06T12:29:59;7.03;;;2.80;;
4452;SDS011;2239;48.152;11.584;2023-04-06T12:32:25;8.77;;;2.87;;
4452;SDS011;2239;48.152;11.584;2023-04-06T12:34:52;4.77;;;2.80;;
4452;SDS011;2239;48.152;11.584;2023-04-06T12:37:18;11.50;;;3.00;;
4452;SDS011;2239;48.152;11.584;2023-04-06T12:39:43;3.07;;;2.23;;
4452;SDS011;2239;48.152;11.584;2023-04-06T12:42:09;5.17;;;2.90;;
4452;SDS011;2239;48.152;11.584;2023-04-06T12:44:35;4.47;;;2.60;;
4452;SDS011;2239;48.152;11.584;2023-04-06T12:47:01;5.50;;;2.20;;
4452;SDS011;2239;48.152;11.584;2023-04-06T12:49:27;4.90;;;2.47;;
4452;SDS011;2239;48.152;11.584;2023-04-06T12:51:52;5.97;;;2.10;;
4452;SDS011;2239;48.152;11.584;2023-04-06T12:54:18;7.07;;;2.80;;
4452;SDS011;2239;48.152;11.584;2023-04-06T12:56:44;7.40;;;3.27;;
4452;SDS011;2239;48.152;11.584;2023-04-06T12:59:10;3.50;;;1.87;;
4452;SDS011;2239;48.152;11.584;2023-04-06T13:01:36;5.53;;;2.57;;
4452;SDS011;2239;48.152;11.584;2023-04-06T13:04:02;5.40;;;2.30;;
4452;SDS011;2239;48.152;11.584;2023-04-06T13:06:27;3.83;;;2.10;;
4452;SDS011;2239;48.152;11.584;2023-04-06T13:08:53;4.20;;;1.93;;
4452;SDS011;2239;48.152;11.584;2023-04-06T13:11:19;3.97;;;2.43;;
4452;SDS011;2239;48.152;11.584;2023-04-06T13:13:46;5.33;;;2.00;;
4452;SDS011;2239;48.152;11.584;2023-04-06T13:16:12;6.30;;;2.37;;
4452;SDS011;2239;48.152;11.584;2023-04-06T13:18:37;6.97;;;2.50;;
4452;SDS011;2239;48.152;11.584;2023-04-06T13:21:04;5.23;;;2.37;;
4452;SDS011;2239;48.152;11.584;2023-04-06T13:23:31;4.23;;;2.70;;
4452;SDS011;2239;48.152;11.584;2023-04-06T13:25:57;8.03;;;3.03;;
4452;SDS011;2239;48.152;11.584;2023-04-06T13:28:28;3.83;;;2.70;;
4452;SDS011;2239;48.152;11.584;2023-04-06T13:30:54;5.10;;;2.30;;
4452;SDS011;2239;48.152;11.584;2023-04-06T13:33:20;3.23;;;2.30;;
4452;SDS011;2239;48.152;11.584;2023-04-06T13:35:46;4.57;;;2.03;;
4452;SDS011;2239;48.152;11.584;2023-04-06T13:38:12;5.37;;;2.20;;
4452;SDS011;2239;48.152;11.584;2023-04-06T13:40:38;5.23;;;2.17;;
4452;SDS011;2239;48.152;11.584;2023-04-06T13:43:05;4.60;;;2.63;;
4452;SDS011;2239;48.152;11.584;2023-04-06T13:45:31;5.23;;;2.33;;
4452;SDS011;2239;48.152;11.584;2023-04-06T13:47:56;3.83;;;1.90;;
4452;SDS011;2239;48.152;11.584;2023-04-06T13:50:22;2.57;;;1.80;;
4452;SDS011;2239;48.152;11.584;2023-04-06T13:52:47;4.90;;;2.50;;
4452;SDS011;2239;48.152;11.584;2023-04-06T13:55:14;6.10;;;2.20;;
4452;SDS011;2239;48.152;11.584;2023-04-06T13:57:40;4.00;;;2.43;;
4452;SDS011;2239;48.152;11.584;2023-04-06T14:00:07;5.47;;;2.40;;
4452;SDS011;2239;48.152;11.584;2023-04-06T14:02:34;5.20;;;2.20;;
4452;SDS011;2239;48.152;11.584;2023-04-06T14:05:00;4.43;;;2.27;;
4452;SDS011;2239;48.152;11.584;2023-04-06T14:07:25;6.33;;;3.00;;
4452;SDS011;2239;48.152;11.584;2023-04-06T14:09:51;5.70;;;2.33;;
4452;SDS011;2239;48.152;11.584;2023-04-06T14:12:17;3.60;;;2.20;;
4452;SDS011;2239;48.152;11.584;2023-04-06T14:14:42;5.87;;;2.40;;
4452;SDS011;2239;48.152;11.584;2023-04-06T14:17:08;4.00;;;2.37;;
4452;SDS011;2239;48.152;11.584;2023-04-06T14:19:33;5.30;;;2.07;;
4452;SDS011;2239;48.152;11.584;2023-04-06T14:22:00;5.43;;;2.20;;
4452;SDS011;2239;48.152;11.584;2023-04-06T14:24:26;3.27;;;1.73;;
4452;SDS011;2239;48.152;11.584;2023-04-06T14:26:52;2.90;;;1.83;;
4452;SDS011;2239;48.152;11.584;2023-04-06T14:29:18;5.77;;;2.60;;
4452;SDS011;2239;48.152;11.584;2023-04-06T14:31:45;3.97;;;2.37;;
4452;SDS011;2239;48.152;11.584;2023-04-06T14:34:12;6.33;;;2.10;;
4452;SDS011;2239;48.152;11.584;2023-04-06T14:36:37;4.23;;;2.03;;
4452;SDS011;2239;48.152;11.584;2023-04-06T14:39:04;2.60;;;1.80;;
4452;SDS011;2239;48.152;11.584;2023-04-06T14:41:30;2.33;;;1.77;;
4452;SDS011;2239;48.152;11.584;2023-04-06T14:43:56;4.80;;;2.10;;
4452;SDS011;2239;48.152;11.584;2023-04-06T14:46:23;4.07;;;2.10;;
4452;SDS011;2239;48.152;11.584;2023-04-06T14:48:48;2.27;;;1.50;;
4452;SDS011;2239;48.152;11.584;2023-04-06T14:51:14;8.57;;;1.90;;
4452;SDS011;2239;48.152;11.584;2023-04-06T14:53:40;4.87;;;2.10;;
4452;SDS011;2239;48.152;11.584;2023-04-06T14:56:05;2.90;;;1.47;;
4452;SDS011;2239;48.152;11.584;2023-04-06T14:58:31;3.40;;;1.97;;
4452;SDS011;2239;48.152;11.584;2023-04-06T15:00:57;4.33;;;2.17;;
4452;SDS011;2239;48.152;11.584;2023-04-06T15:03:24;3.33;;;2.13;;
4452;SDS011;2239;48.152;11.584;2023-04-06T15:05:51;2.17;;;1.40;;
4452;SDS011;2239;48.152;11.584;2023-04-06T15:08:17;2.93;;;2.10;;